Time,TemperatureF,DewpointF,PressureIn,WindDirection,WindDirectionDegrees,WindSpeedMPH,WindSpeedGustMPH,Humidity,HourlyPrecipIn,Conditions,Clouds,dailyrainin,SoftwareType,DateUTC
2013-02-20 00:00:00,16.5,7.4,29.85,WNW,296,5.8,5.8,67,0.00,RA,,0.00,WeatherDisplay:10.37,2013-02-20 05:00:00,
2013-02-20 00:01:00,16.5,7.4,29.85,NNW,341,13.8,13.8,67,0.00,RA,,0.00,WeatherDisplay:10.37,2013-02-20 05:01:00,
2013-02-20 00:05:00,16.4,7.0,29.85,NW,313,10.4,10.4,66,0.00,RA,,0.00,WeatherDisplay:10.37,2013-02-20 05:05:00,
2013-02-20 00:10:00,16.3,6.9,29.85,North,5,6.9,6.9,66,0.00,CLR,,0.00,WeatherDisplay:10.37,2013-02-20 05:10:00,
2013-02-20 00:15:00,16.2,6.8,29.86,NW,320,4.6,4.6,66,0.00,CLR,,0.00,WeatherDisplay:10.37,2013-02-20 05:15:00,
2013-02-20 00:20:00,16.1,6.7,29.86,NW,316,4.6,4.6,66,0.00,CLR,,0.00,WeatherDisplay:10.37,2013-02-20 05:20:00,
2013-02-20 00:25:00,16.1,7.1,29.86,North,355,9.2,9.2,67,0.00,CLR,,0.00,WeatherDisplay:10.37,2013-02-20 05:25:00,
2013-02-20 00:30:00,16.0,6.6,29.86,NNW,332,16.1,16.1,66,0.00,CLR,,0.00,WeatherDisplay:10.37,2013-02-20 05:30:00,
2013-02-20 00:35:00,16.0,6.6,29.86,NW,309,13.8,13.8,66,0.00,CLR,,0.00,WeatherDisplay:10.37,2013-02-20 05:35:00,
2013-02-20 00:40:00,16.0,6.6,29.86,NNW,336,11.5,11.5,66,0.00,CLR,,0.00,WeatherDisplay:10.37,2013-02-20 05:40:00,
2013-02-20 00:45:00,16.0,6.6,29.86,NNW,338,3.5,3.5,66,0.00,CLR,,0.00,WeatherDisplay:10.37,2013-02-20 05:45:00,
2013-02-20 00:50:00,16.0,6.3,29.86,NNW,335,19.6,19.6,65,0.00,CLR,,0.00,WeatherDisplay:10.37,2013-02-20 05:50:00,
2013-02-20 00:55:00,16.0,6.3,29.86,North,350,20.7,20.7,65,0.00,CLR,,0.00,WeatherDisplay:10.37,2013-02-20 05:55:00,
2013-02-20 01:00:00,16.0,6.6,29.87,WNW,292,9.2,9.2,66,0.00,CLR,,0.00,WeatherDisplay:10.37,2013-02-20 06:00:00,
2013-02-20 01:05:00,16.0,6.6,29.86,NNW,345,11.5,11.5,66,0.00,CLR,,0.00,WeatherDisplay:10.37,2013-02-20 06:05:00,
2013-02-20 01:10:00,16.0,6.6,29.87,NNW,333,11.5,11.5,66,0.00,CLR,,0.00,WeatherDisplay:10.37,2013-02-20 06:10:00,
2013-02-20 01:15:00,15.9,6.5,29.87,WNW,287,12.0,12.0,66,0.00,CLR,,0.00,WeatherDisplay:10.37,2013-02-20 06:15:00,
2013-02-20 01:20:00,15.9,6.5,29.87,WNW,294,13.8,13.8,66,0.00,CLR,,0.00,WeatherDisplay:10.37,2013-02-20 06:20:00,
2013-02-20 01:25:00,15.8,6.8,29.87,North,360,11.5,11.5,67,0.00,CLR,,0.00,WeatherDisplay:10.37,2013-02-20 06:25:00,
2013-02-20 01:30:00,15.8,6.4,29.87,NW,313,16.1,16.1,66,0.00,CLR,,0.00,WeatherDisplay:10.37,2013-02-20 06:30:00,
2013-02-20 01:35:00,15.7,6.3,29.87,NW,314,11.5,11.5,66,0.00,CLR,,0.00,WeatherDisplay:10.37,2013-02-20 06:35:00,
2013-02-20 01:40:00,15.7,6.7,29.87,WNW,290,15.0,15.0,67,0.00,CLR,,0.00,WeatherDisplay:10.37,2013-02-20 06:40:00,
2013-02-20 01:45:00,15.6,6.3,29.87,West,267,12.7,12.7,66,0.00,CLR,,0.00,WeatherDisplay:10.37,2013-02-20 06:45:00,
2013-02-20 01:50:00,15.7,6.3,29.88,NNW,329,11.5,11.5,66,0.00,CLR,,0.00,WeatherDisplay:10.37,2013-02-20 06:50:00,
2013-02-20 01:55:00,15.6,6.6,29.88,NW,304,5.8,5.8,67,0.00,CLR,,0.00,WeatherDisplay:10.37,2013-02-20 06:55:00,
2013-02-20 02:00:00,15.5,6.5,29.88,NNW,333,12.0,12.0,67,0.00,CLR,,0.00,WeatherDisplay:10.37,2013-02-20 07:00:00,
2013-02-20 02:05:00,15.5,6.8,29.88,WNW,303,13.8,13.8,68,0.00,CLR,,0.00,WeatherDisplay:10.37,2013-02-20 07:05:00,
2013-02-20 02:10:00,15.4,6.7,29.88,WNW,283,3.5,3.5,68,0.00,CLR,,0.00,WeatherDisplay:10.37,2013-02-20 07:10:00,
2013-02-20 02:15:00,15.4,6.7,29.89,NNW,327,16.1,16.1,68,0.00,CLR,,0.00,WeatherDisplay:10.37,2013-02-20 07:15:00,
2013-02-20 02:20:00,15.4,7.0,29.89,NW,319,18.4,18.4,69,0.00,CLR,,0.00,WeatherDisplay:10.37,2013-02-20 07:20:00,
2013-02-20 02:25:00,15.3,6.9,29.90,NW,315,13.0,13.0,69,0.00,CLR,,0.00,WeatherDisplay:10.37,2013-02-20 07:25:00,
2013-02-20 02:30:00,15.3,6.9,29.89,NW,304,12.7,12.7,69,0.00,CLR,,0.00,WeatherDisplay:10.37,2013-02-20 07:30:00,
2013-02-20 02:35:00,15.2,6.8,29.89,WNW,298,13.8,13.8,69,0.00,CLR,,0.00,WeatherDisplay:10.37,2013-02-20 07:35:00,
2013-02-20 02:40:00,15.1,7.1,29.89,WNW,290,9.2,9.2,70,0.00,CLR,,0.00,WeatherDisplay:10.37,2013-02-20 07:40:00,
2013-02-20 02:45:00,15.0,7.0,29.90,WNW,300,6.9,6.9,70,0.00,CLR,,0.00,WeatherDisplay:10.37,2013-02-20 07:45:00,
2013-02-20 02:50:00,15.0,7.0,29.90,NNW,338,11.5,11.5,70,0.00,CLR,,0.00,WeatherDisplay:10.37,2013-02-20 07:50:00,
2013-02-20 02:55:00,14.9,6.9,29.90,NW,317,11.5,11.5,70,0.00,CLR,,0.00,WeatherDisplay:10.37,2013-02-20 07:55:00,
2013-02-20 03:00:00,14.9,7.2,29.90,WNW,303,11.5,11.5,71,0.00,CLR,,0.00,WeatherDisplay:10.37,2013-02-20 08:00:00,
2013-02-20 03:05:00,14.8,7.1,29.90,NW,304,13.8,13.8,71,0.00,CLR,,0.00,WeatherDisplay:10.37,2013-02-20 08:05:00,
2013-02-20 03:10:00,14.9,7.2,29.90,WNW,294,19.6,19.6,71,0.00,CLR,,0.00,WeatherDisplay:10.37,2013-02-20 08:10:00,
2013-02-20 03:15:00,14.9,7.2,29.90,NW,322,15.0,15.0,71,0.00,CLR,,0.00,WeatherDisplay:10.37,2013-02-20 08:15:00,
2013-02-20 03:20:00,14.9,7.2,29.91,NW,309,15.0,15.0,71,0.00,CLR,,0.00,WeatherDisplay:10.37,2013-02-20 08:20:00,
2013-02-20 03:25:00,14.8,7.1,29.91,North,5,11.5,11.5,71,0.00,CLR,,0.00,WeatherDisplay:10.37,2013-02-20 08:25:00,
2013-02-20 03:30:00,14.8,7.1,29.91,NW,309,12.7,12.7,71,0.00,CLR,,0.00,WeatherDisplay:10.37,2013-02-20 08:30:00,
2013-02-20 03:35:00,14.7,7.0,29.91,WNW,298,15.0,15.0,71,0.00,CLR,,0.00,WeatherDisplay:10.37,2013-02-20 08:35:00,
2013-02-20 03:40:00,14.7,7.3,29.91,North,355,5.8,5.8,72,0.00,CLR,,0.00,WeatherDisplay:10.37,2013-02-20 08:40:00,
2013-02-20 03:45:00,14.8,7.4,29.91,NNW,327,9.0,9.0,72,0.00,CLR,,0.00,WeatherDisplay:10.37,2013-02-20 08:45:00,
2013-02-20 03:50:00,14.8,7.4,29.91,WNW,296,11.5,11.5,72,0.00,CLR,,0.00,WeatherDisplay:10.37,2013-02-20 08:50:00,
2013-02-20 03:55:00,14.7,7.3,29.92,NW,320,6.0,6.0,72,0.00,CLR,,0.00,WeatherDisplay:10.37,2013-02-20 08:55:00,
2013-02-20 04:00:00,14.6,7.5,29.92,WNW,290,6.9,6.9,73,0.00,CLR,,0.00,WeatherDisplay:10.37,2013-02-20 09:00:00,
2013-02-20 04:05:00,14.5,7.4,29.92,WNW,298,9.2,9.2,73,0.00,CLR,,0.00,WeatherDisplay:10.37,2013-02-20 09:05:00,
2013-02-20 04:10:00,14.5,7.4,29.92,WNW,300,12.7,12.7,73,0.00,CLR,,0.00,WeatherDisplay:10.37,2013-02-20 09:10:00,
2013-02-20 04:15:00,14.5,7.7,29.93,NW,323,4.0,4.0,74,0.00,CLR,,0.00,WeatherDisplay:10.37,2013-02-20 09:15:00,
2013-02-20 04:20:00,14.4,7.6,29.93,WNW,303,6.9,6.9,74,0.00,CLR,,0.00,WeatherDisplay:10.37,2013-02-20 09:20:00,
2013-02-20 04:25:00,14.4,7.6,29.93,NW,311,3.5,3.5,74,0.00,CLR,,0.00,WeatherDisplay:10.37,2013-02-20 09:25:00,
2013-02-20 04:30:00,14.3,7.8,29.93,WNW,300,7.0,7.0,75,0.00,CLR,,0.00,WeatherDisplay:10.37,2013-02-20 09:30:00,
2013-02-20 04:35:00,14.4,7.9,29.93,North,360,11.5,11.5,75,0.00,CLR,,0.00,WeatherDisplay:10.37,2013-02-20 09:35:00,
2013-02-20 04:40:00,14.4,7.9,29.93,WNW,299,9.2,9.2,75,0.00,CLR,,0.00,WeatherDisplay:10.37,2013-02-20 09:40:00,
2013-02-20 04:45:00,14.4,7.9,29.94,WNW,291,4.6,4.6,75,0.00,CLR,,0.00,WeatherDisplay:10.37,2013-02-20 09:45:00,
2013-02-20 04:50:00,14.4,7.9,29.94,West,280,10.4,10.4,75,0.00,CLR,,0.00,WeatherDisplay:10.37,2013-02-20 09:50:00,
2013-02-20 04:55:00,14.4,7.9,29.94,North,350,1.1,0.0,75,0.00,CLR,,0.00,WeatherDisplay:10.37,2013-02-20 09:55:00,
2013-02-20 05:00:00,14.5,8.0,29.94,North,360,10.4,10.4,75,0.00,CLR,,0.00,WeatherDisplay:10.37,2013-02-20 10:00:00,
2013-02-20 05:05:00,14.6,8.1,29.94,WNW,294,9.2,9.2,75,0.00,CLR,,0.00,WeatherDisplay:10.37,2013-02-20 10:05:00,
2013-02-20 05:10:00,14.6,8.1,29.95,NNW,327,10.4,10.4,75,0.00,CLR,,0.00,WeatherDisplay:10.37,2013-02-20 10:10:00,
2013-02-20 05:15:00,14.7,8.2,29.95,WNW,295,3.5,3.5,75,0.00,CLR,,0.00,WeatherDisplay:10.37,2013-02-20 10:15:00,
2013-02-20 05:20:00,14.7,8.5,29.95,NNW,338,3.5,3.5,76,0.00,CLR,,0.00,WeatherDisplay:10.37,2013-02-20 10:20:00,
2013-02-20 05:25:00,14.7,8.5,29.95,WNW,294,10.0,10.0,76,0.00,CLR,,0.00,WeatherDisplay:10.37,2013-02-20 10:25:00,
2013-02-20 05:30:00,14.7,8.5,29.96,WNW,303,3.5,3.5,76,0.00,CLR,,0.00,WeatherDisplay:10.37,2013-02-20 10:30:00,
2013-02-20 05:35:00,14.7,8.5,29.96,WNW,302,3.5,3.5,76,0.00,CLR,,0.00,WeatherDisplay:10.37,2013-02-20 10:35:00,
2013-02-20 05:40:00,14.8,8.9,29.96,NNE,27,3.5,3.5,77,0.00,CLR,,0.00,WeatherDisplay:10.37,2013-02-20 10:40:00,
2013-02-20 05:45:00,14.8,9.2,29.97,NNE,22,3.5,3.5,78,0.00,CLR,,0.00,WeatherDisplay:10.37,2013-02-20 10:45:00,
2013-02-20 05:50:00,14.8,9.2,29.97,NNE,13,0.0,0.0,78,0.00,CLR,,0.00,WeatherDisplay:10.37,2013-02-20 10:50:00,
2013-02-20 05:55:00,14.8,9.5,29.97,NW,311,0.0,0.0,79,0.00,CLR,,0.00,WeatherDisplay:10.37,2013-02-20 10:55:00,
2013-02-20 06:00:00,14.7,9.6,29.97,NW,305,3.0,3.0,80,0.00,CLR,,0.00,WeatherDisplay:10.37,2013-02-20 11:00:00,
2013-02-20 06:05:00,14.6,9.8,29.97,NE,51,1.1,1.1,81,0.00,CLR,,0.00,WeatherDisplay:10.37,2013-02-20 11:05:00,
2013-02-20 06:10:00,14.6,10.1,29.98,NE,38,2.0,2.0,82,0.00,CLR,,0.00,WeatherDisplay:10.37,2013-02-20 11:10:00,
2013-02-20 06:15:00,14.5,10.3,29.98,WNW,293,5.0,5.0,83,0.00,CLR,,0.00,WeatherDisplay:10.37,2013-02-20 11:15:00,
2013-02-20 06:20:00,14.4,10.2,29.98,East,94,3.0,3.0,83,0.00,CLR,,0.00,WeatherDisplay:10.37,2013-02-20 11:20:00,
2013-02-20 06:25:00,14.4,10.2,29.98,NNW,329,3.5,3.5,83,0.00,CLR,,0.00,WeatherDisplay:10.37,2013-02-20 11:25:00,
2013-02-20 06:30:00,14.4,10.2,29.99,North,355,3.5,3.5,83,0.00,CLR,,0.00,WeatherDisplay:10.37,2013-02-20 11:30:00,
2013-02-20 06:35:00,14.4,12.5,29.99,WNW,302,0.0,0.1,92,0.00,CLR,,0.00,WeatherDisplay:10.37,2013-02-20 11:35:00,
2013-02-20 06:40:00,14.3,10.4,29.99,NW,323,4.6,4.6,84,0.00,CLR,,0.00,WeatherDisplay:10.37,2013-02-20 11:40:00,
2013-02-20 06:45:00,14.3,10.1,29.99,NW,315,5.8,5.8,83,0.00,CLR,,0.00,WeatherDisplay:10.37,2013-02-20 11:45:00,
2013-02-20 06:50:00,14.3,9.8,29.99,North,360,3.5,3.5,82,0.00,CLR,,0.00,WeatherDisplay:10.37,2013-02-20 11:50:00,
2013-02-20 06:55:00,14.3,9.5,29.99,NW,315,11.5,11.5,81,0.00,CLR,,0.00,WeatherDisplay:10.37,2013-02-20 11:55:00,
2013-02-20 07:00:00,14.3,9.3,29.99,NNW,341,3.5,3.5,80,0.00,CLR,,0.00,WeatherDisplay:10.37,2013-02-20 12:00:00,
2013-02-20 07:05:00,14.2,9.2,30.00,North,5,4.6,4.6,80,0.00,CLR,,0.00,WeatherDisplay:10.37,2013-02-20 12:05:00,
2013-02-20 07:10:00,14.1,9.1,30.00,North,9,3.5,3.5,80,0.00,CLR,,0.00,WeatherDisplay:10.37,2013-02-20 12:10:00,
2013-02-20 07:15:00,14.1,9.3,30.00,North,10,0.0,0.0,81,0.00,CLR,,0.00,WeatherDisplay:10.37,2013-02-20 12:15:00,
2013-02-20 07:20:00,14.0,9.2,30.00,North,10,0.0,0.0,81,0.00,CLR,,0.00,WeatherDisplay:10.37,2013-02-20 12:20:00,
2013-02-20 07:25:00,14.0,9.0,30.00,NNE,24,4.0,4.0,80,0.00,CLR,,0.00,WeatherDisplay:10.37,2013-02-20 12:25:00,
2013-02-20 07:30:00,14.0,9.0,30.01,NE,42,3.0,3.0,80,0.00,CLR,,0.00,WeatherDisplay:10.37,2013-02-20 12:30:00,
2013-02-20 07:35:00,13.9,8.6,30.00,NNW,336,3.5,3.5,79,0.00,CLR,,0.00,WeatherDisplay:10.37,2013-02-20 12:35:00,
2013-02-20 07:40:00,13.9,8.3,30.01,NNE,28,8.1,8.1,78,0.00,CLR,,0.00,WeatherDisplay:10.37,2013-02-20 12:40:00,
2013-02-20 07:45:00,13.9,8.3,30.01,North,10,3.5,3.5,78,0.00,CLR,,0.00,WeatherDisplay:10.37,2013-02-20 12:45:00,
2013-02-20 07:50:00,13.9,8.3,30.01,NNE,19,10.0,10.0,78,0.00,CLR,,0.00,WeatherDisplay:10.37,2013-02-20 12:50:00,
2013-02-20 07:55:00,13.9,8.0,30.02,North,10,2.3,2.3,77,0.00,CLR,,0.00,WeatherDisplay:10.37,2013-02-20 12:55:00,
2013-02-20 08:00:00,14.0,8.1,30.03,NW,310,0.0,0.2,77,0.00,CLR,,0.00,WeatherDisplay:10.37,2013-02-20 13:00:00,
2013-02-20 08:05:00,14.0,8.1,30.03,North,5,4.0,4.0,77,0.00,CLR,,0.00,WeatherDisplay:10.37,2013-02-20 13:05:00,
2013-02-20 08:10:00,14.1,8.2,30.03,NNE,25,5.8,5.8,77,0.00,CLR,,0.00,WeatherDisplay:10.37,2013-02-20 13:10:00,
2013-02-20 08:15:00,14.1,7.9,30.04,NE,54,4.0,4.0,76,0.00,CLR,,0.00,WeatherDisplay:10.37,2013-02-20 13:15:00,
2013-02-20 08:20:00,14.1,7.9,30.04,NNE,29,6.9,6.9,76,0.00,CLR,,0.00,WeatherDisplay:10.37,2013-02-20 13:20:00,
2013-02-20 08:25:00,14.2,8.0,30.04,NE,46,3.5,3.5,76,0.00,CLR,,0.00,WeatherDisplay:10.37,2013-02-20 13:25:00,
2013-02-20 08:30:00,14.3,8.1,30.04,NNE,30,3.0,3.0,76,0.00,CLR,,0.00,WeatherDisplay:10.37,2013-02-20 13:30:00,
2013-02-20 08:35:00,14.3,8.1,30.04,West,281,4.6,4.6,76,0.00,CLR,,0.00,WeatherDisplay:10.37,2013-02-20 13:35:00,
2013-02-20 08:40:00,14.5,8.3,30.04,North,5,6.0,6.0,76,0.00,CLR,,0.00,WeatherDisplay:10.37,2013-02-20 13:40:00,
2013-02-20 08:45:00,14.8,8.3,30.04,NNE,24,8.1,8.1,75,0.00,CLR,,0.00,WeatherDisplay:10.37,2013-02-20 13:45:00,
2013-02-20 08:50:00,15.1,8.6,30.05,NW,323,9.0,9.0,75,0.00,CLR,,0.00,WeatherDisplay:10.37,2013-02-20 13:50:00,
2013-02-20 08:55:00,15.3,8.5,30.05,NE,40,5.0,5.0,74,0.00,CLR,,0.00,WeatherDisplay:10.37,2013-02-20 13:55:00,
2013-02-20 09:00:00,15.5,8.7,30.05,North,355,10.4,10.4,74,0.00,CLR,,0.00,WeatherDisplay:10.37,2013-02-20 14:00:00,
2013-02-20 09:05:00,15.6,8.8,30.05,NNE,18,10.0,10.0,74,0.00,CLR,,0.00,WeatherDisplay:10.37,2013-02-20 14:05:00,
2013-02-20 09:10:00,15.7,8.6,30.05,NNW,329,10.0,10.0,73,0.00,CLR,,0.00,WeatherDisplay:10.37,2013-02-20 14:10:00,
2013-02-20 09:15:00,15.7,8.6,30.06,NNW,327,12.7,12.7,73,0.00,CLR,,0.00,WeatherDisplay:10.37,2013-02-20 14:15:00,
2013-02-20 09:20:00,15.6,8.5,30.05,NE,38,5.8,5.8,73,0.00,CLR,,0.00,WeatherDisplay:10.37,2013-02-20 14:20:00,
2013-02-20 09:25:00,15.8,8.4,30.05,North,360,11.0,11.0,72,0.00,CLR,,0.00,WeatherDisplay:10.37,2013-02-20 14:25:00,
2013-02-20 09:30:00,15.8,8.4,30.05,NE,49,11.5,11.5,72,0.00,CLR,,0.00,WeatherDisplay:10.37,2013-02-20 14:30:00,
2013-02-20 09:35:00,15.8,8.4,30.06,NE,36,9.2,9.2,72,0.00,CLR,,0.00,WeatherDisplay:10.37,2013-02-20 14:35:00,
2013-02-20 09:40:00,15.9,8.5,30.06,NE,40,10.4,10.4,72,0.00,CLR,,0.00,WeatherDisplay:10.37,2013-02-20 14:40:00,
2013-02-20 09:45:00,16.1,8.7,30.06,ENE,59,4.6,4.6,72,0.00,CLR,,0.00,WeatherDisplay:10.37,2013-02-20 14:45:00,
2013-02-20 09:50:00,16.4,8.6,30.06,North,360,10.4,10.4,71,0.00,CLR,,0.00,WeatherDisplay:10.37,2013-02-20 14:50:00,
2013-02-20 09:55:00,16.9,9.4,30.06,NW,321,9.0,9.0,72,0.00,CLR,,0.00,WeatherDisplay:10.37,2013-02-20 14:55:00,
2013-02-20 10:00:00,17.0,8.9,30.06,NW,316,4.0,4.0,70,0.00,CLR,,0.00,WeatherDisplay:10.37,2013-02-20 15:00:00,
2013-02-20 10:05:00,16.9,8.8,30.06,NE,34,9.2,9.2,70,0.00,CLR,,0.00,WeatherDisplay:10.37,2013-02-20 15:05:00,
2013-02-20 10:10:00,16.8,8.4,30.06,NNE,24,6.9,6.9,69,0.00,CLR,,0.00,WeatherDisplay:10.37,2013-02-20 15:10:00,
2013-02-20 10:15:00,16.7,8.3,30.06,WNW,292,17.3,17.3,69,0.00,CLR,,0.00,WeatherDisplay:10.37,2013-02-20 15:15:00,
2013-02-20 10:20:00,16.7,8.3,30.06,NNE,16,4.6,4.6,69,0.00,CLR,,0.00,WeatherDisplay:10.37,2013-02-20 15:20:00,
2013-02-20 10:25:00,17.1,8.7,30.07,ENE,71,3.5,3.5,69,0.00,CLR,,0.00,WeatherDisplay:10.37,2013-02-20 15:25:00,
2013-02-20 10:30:00,17.2,8.4,30.07,ESE,109,6.0,6.0,68,0.00,CLR,,0.00,WeatherDisplay:10.37,2013-02-20 15:30:00,
2013-02-20 10:35:00,17.0,7.9,30.07,North,360,15.0,15.0,67,0.00,CLR,,0.00,WeatherDisplay:10.37,2013-02-20 15:35:00,
2013-02-20 10:40:00,17.2,8.8,30.07,North,351,9.2,9.2,69,0.00,CLR,,0.00,WeatherDisplay:10.37,2013-02-20 15:40:00,
2013-02-20 10:45:00,17.5,8.7,30.08,NE,47,6.9,6.9,68,0.00,CLR,,0.00,WeatherDisplay:10.37,2013-02-20 15:45:00,
2013-02-20 10:50:00,17.7,8.6,30.08,NE,45,6.0,6.0,67,0.00,CLR,,0.00,WeatherDisplay:10.37,2013-02-20 15:50:00,
2013-02-20 10:55:00,17.7,8.6,30.08,NE,46,6.9,6.9,67,0.00,CLR,,0.00,WeatherDisplay:10.37,2013-02-20 15:55:00,
2013-02-20 11:00:00,17.8,8.4,30.08,NE,43,5.0,5.0,66,0.00,CLR,,0.00,WeatherDisplay:10.37,2013-02-20 16:00:00,
2013-02-20 11:05:00,18.0,8.5,30.08,NE,34,13.0,13.0,66,0.00,CLR,,0.00,WeatherDisplay:10.37,2013-02-20 16:05:00,
2013-02-20 11:10:00,18.1,8.6,30.08,North,360,6.9,6.9,66,0.00,CLR,,0.00,WeatherDisplay:10.37,2013-02-20 16:10:00,
2013-02-20 11:15:00,18.3,8.8,30.08,NNE,15,11.5,11.5,66,0.00,CLR,,0.00,WeatherDisplay:10.37,2013-02-20 16:15:00,
2013-02-20 11:20:00,18.3,8.5,30.08,East,83,16.1,16.1,65,0.00,CLR,,0.00,WeatherDisplay:10.37,2013-02-20 16:20:00,
2013-02-20 11:25:00,18.1,8.3,30.08,NE,38,6.9,6.9,65,0.00,CLR,,0.00,WeatherDisplay:10.37,2013-02-20 16:25:00,
2013-02-20 11:30:00,18.4,8.6,30.08,East,99,5.8,5.8,65,0.00,CLR,,0.00,WeatherDisplay:10.37,2013-02-20 16:30:00,
2013-02-20 11:35:00,18.5,8.7,30.08,NE,34,4.6,4.6,65,0.00,CLR,,0.00,WeatherDisplay:10.37,2013-02-20 16:35:00,
2013-02-20 11:40:00,18.8,9.0,30.08,NW,317,6.9,6.9,65,0.00,CLR,,0.00,WeatherDisplay:10.37,2013-02-20 16:40:00,
2013-02-20 11:45:00,19.0,9.2,30.08,ENE,78,11.5,11.5,65,0.00,CLR,,0.00,WeatherDisplay:10.37,2013-02-20 16:45:00,
2013-02-20 11:50:00,19.0,9.2,30.08,NE,52,10.4,10.4,65,0.00,CLR,,0.00,WeatherDisplay:10.37,2013-02-20 16:50:00,
2013-02-20 11:55:00,19.1,8.9,30.08,NW,323,3.5,3.5,64,0.00,CLR,,0.00,WeatherDisplay:10.37,2013-02-20 16:55:00,
2013-02-20 12:03:00,19.2,9.0,30.08,North,11,6.9,6.9,64,0.00,CLR,,0.00,WeatherDisplay:10.37,2013-02-20 17:03:00,
2013-02-20 12:08:00,19.1,8.9,30.09,NNE,21,5.8,5.8,64,0.00,CLR,,0.00,WeatherDisplay:10.37,2013-02-20 17:08:00,
2013-02-20 12:13:00,19.7,9.5,30.09,NW,317,16.1,16.1,64,0.00,CLR,,0.00,WeatherDisplay:10.37,2013-02-20 17:13:00,
2013-02-20 12:18:00,19.7,9.5,30.09,NW,322,5.0,5.0,64,0.00,CLR,,0.00,WeatherDisplay:10.37,2013-02-20 17:18:00,
2013-02-20 12:23:00,19.7,9.5,30.09,North,360,4.0,4.0,64,0.00,CLR,,0.00,WeatherDisplay:10.37,2013-02-20 17:23:00,
2013-02-20 12:28:00,19.8,9.9,30.09,NNE,31,7.0,7.0,65,0.00,CLR,,0.00,WeatherDisplay:10.37,2013-02-20 17:28:00,
2013-02-20 12:33:00,19.8,9.6,30.09,WNW,295,9.2,9.2,64,0.00,CLR,,0.00,WeatherDisplay:10.37,2013-02-20 17:33:00,
2013-02-20 12:38:00,19.7,9.1,30.09,NNE,18,11.5,11.5,63,0.00,CLR,,0.00,WeatherDisplay:10.37,2013-02-20 17:38:00,
2013-02-20 12:43:00,19.7,9.5,30.09,East,83,11.5,11.5,64,0.00,CLR,,0.00,WeatherDisplay:10.37,2013-02-20 17:43:00,
2013-02-20 12:48:00,19.7,9.5,30.09,East,82,4.6,4.6,64,0.00,CLR,,0.00,WeatherDisplay:10.37,2013-02-20 17:48:00,
2013-02-20 12:53:00,19.7,9.5,30.09,NNW,343,10.4,10.4,64,0.00,CLR,,0.00,WeatherDisplay:10.37,2013-02-20 17:53:00,
2013-02-20 12:58:00,19.5,9.3,30.09,NNE,23,15.0,15.0,64,0.00,CLR,,0.00,WeatherDisplay:10.37,2013-02-20 17:58:00,
2013-02-20 13:03:00,19.7,9.5,30.10,NNE,19,12.7,12.7,64,0.00,CLR,,0.00,WeatherDisplay:10.37,2013-02-20 18:03:00,
2013-02-20 13:08:00,20.1,9.9,30.10,NE,44,9.2,9.2,64,0.00,CLR,,0.00,WeatherDisplay:10.37,2013-02-20 18:08:00,
2013-02-20 13:13:00,20.5,9.5,30.10,NNW,346,13.0,13.0,62,0.00,CLR,,0.00,WeatherDisplay:10.37,2013-02-20 18:13:00,
2013-02-20 13:18:00,20.0,9.4,30.10,NNW,329,12.7,12.7,63,0.00,CLR,,0.00,WeatherDisplay:10.37,2013-02-20 18:18:00,
2013-02-20 13:23:00,20.2,10.0,30.10,NNE,32,5.8,5.8,64,0.00,CLR,,0.00,WeatherDisplay:10.37,2013-02-20 18:23:00,
2013-02-20 13:28:00,20.5,10.2,30.10,ENE,72,0.0,0.0,64,0.00,CLR,,0.00,WeatherDisplay:10.37,2013-02-20 18:28:00,
2013-02-20 13:33:00,20.4,9.8,30.10,NE,49,4.6,4.6,63,0.00,CLR,,0.00,WeatherDisplay:10.37,2013-02-20 18:33:00,
2013-02-20 13:38:00,20.2,9.6,30.10,NNE,24,13.8,13.8,63,0.00,CLR,,0.00,WeatherDisplay:10.37,2013-02-20 18:38:00,
2013-02-20 13:43:00,19.8,9.9,30.11,NE,34,6.0,6.0,65,0.00,CLR,,0.00,WeatherDisplay:10.37,2013-02-20 18:43:00,
2013-02-20 13:48:00,19.7,9.5,30.11,North,355,10.4,10.4,64,0.00,CLR,,0.00,WeatherDisplay:10.37,2013-02-20 18:48:00,
2013-02-20 13:53:00,19.7,10.2,30.11,ENE,76,3.5,3.5,66,0.00,CLR,,0.00,WeatherDisplay:10.37,2013-02-20 18:53:00,
2013-02-20 13:58:00,19.9,10.4,30.11,NE,46,10.4,10.4,66,0.00,CLR,,0.00,WeatherDisplay:10.37,2013-02-20 18:58:00,
2013-02-20 14:03:00,19.9,10.0,30.11,NE,48,6.9,6.9,65,0.00,CLR,,0.00,WeatherDisplay:10.37,2013-02-20 19:03:00,
2013-02-20 14:08:00,19.9,10.7,30.11,ENE,65,6.0,6.0,67,0.00,CLR,,0.00,WeatherDisplay:10.37,2013-02-20 19:08:00,
2013-02-20 14:13:00,20.0,10.5,30.11,East,87,6.9,6.9,66,0.00,CLR,,0.00,WeatherDisplay:10.37,2013-02-20 19:13:00,
2013-02-20 14:18:00,19.9,10.0,30.11,ENE,61,9.2,9.2,65,0.00,CLR,,0.00,WeatherDisplay:10.37,2013-02-20 19:18:00,
2013-02-20 14:23:00,20.0,10.5,30.11,NE,55,0.0,0.0,66,0.00,CLR,,0.00,WeatherDisplay:10.37,2013-02-20 19:23:00,
2013-02-20 14:28:00,20.1,10.2,30.11,NNW,340,4.6,4.6,65,0.00,CLR,,0.00,WeatherDisplay:10.37,2013-02-20 19:28:00,
2013-02-20 14:33:00,19.9,10.0,30.12,NW,324,11.5,11.5,65,0.00,CLR,,0.00,WeatherDisplay:10.37,2013-02-20 19:33:00,
2013-02-20 14:38:00,19.8,10.3,30.11,NW,326,12.7,12.7,66,0.00,CLR,,0.00,WeatherDisplay:10.37,2013-02-20 19:38:00,
2013-02-20 14:43:00,19.9,10.7,30.12,NNW,327,10.4,10.4,67,0.00,CLR,,0.00,WeatherDisplay:10.37,2013-02-20 19:43:00,
2013-02-20 14:48:00,20.1,10.6,30.12,NNE,18,11.5,11.5,66,0.00,CLR,,0.00,WeatherDisplay:10.37,2013-02-20 19:48:00,
2013-02-20 14:53:00,19.7,9.8,30.12,North,355,11.5,11.5,65,0.00,CLR,,0.00,WeatherDisplay:10.37,2013-02-20 19:53:00,
2013-02-20 14:58:00,19.7,10.2,30.12,North,360,13.8,13.8,66,0.00,CLR,,0.00,WeatherDisplay:10.37,2013-02-20 19:58:00,
2013-02-20 15:03:00,19.7,9.8,30.12,North,360,10.0,10.0,65,0.00,CLR,,0.00,WeatherDisplay:10.37,2013-02-20 20:03:00,
2013-02-20 15:08:00,19.7,10.5,30.13,NNW,333,12.0,12.0,67,0.00,CLR,,0.00,WeatherDisplay:10.37,2013-02-20 20:08:00,
2013-02-20 15:13:00,19.7,10.2,30.12,North,360,11.5,11.5,66,0.00,CLR,,0.00,WeatherDisplay:10.37,2013-02-20 20:13:00,
2013-02-20 15:18:00,19.7,10.5,30.12,NNE,17,3.5,3.5,67,0.00,CLR,,0.00,WeatherDisplay:10.37,2013-02-20 20:18:00,
2013-02-20 15:23:00,19.9,10.7,30.13,NNW,327,9.2,9.2,67,0.00,CLR,,0.00,WeatherDisplay:10.37,2013-02-20 20:23:00,
2013-02-20 15:28:00,19.7,9.8,30.13,North,5,11.5,11.5,65,0.00,CLR,,0.00,WeatherDisplay:10.37,2013-02-20 20:28:00,
2013-02-20 15:33:00,19.6,10.1,30.13,NNE,12,10.0,10.0,66,0.00,CLR,,0.00,WeatherDisplay:10.37,2013-02-20 20:33:00,
2013-02-20 15:38:00,19.7,10.5,30.14,NNE,17,5.0,5.0,67,0.00,CLR,,0.00,WeatherDisplay:10.37,2013-02-20 20:38:00,
2013-02-20 15:43:00,19.6,10.4,30.14,East,80,5.8,5.8,67,0.00,CLR,,0.00,WeatherDisplay:10.37,2013-02-20 20:43:00,
2013-02-20 15:48:00,19.7,10.5,30.14,NE,37,6.9,6.9,67,0.00,CLR,,0.00,WeatherDisplay:10.37,2013-02-20 20:48:00,
2013-02-20 15:53:00,19.7,10.8,30.14,NW,319,3.5,3.7,68,0.00,CLR,,0.00,WeatherDisplay:10.37,2013-02-20 20:53:00,
2013-02-20 15:58:00,19.6,10.4,30.15,North,355,10.4,10.4,67,0.00,CLR,,0.00,WeatherDisplay:10.37,2013-02-20 20:58:00,
2013-02-20 16:03:00,19.7,10.8,30.15,East,80,11.5,11.5,68,0.00,CLR,,0.00,WeatherDisplay:10.37,2013-02-20 21:03:00,
2013-02-20 16:08:00,19.5,10.3,30.15,WNW,298,3.5,3.5,67,0.00,CLR,,0.00,WeatherDisplay:10.37,2013-02-20 21:08:00,
2013-02-20 16:13:00,19.7,10.8,30.15,WNW,296,6.0,6.0,68,0.00,CLR,,0.00,WeatherDisplay:10.37,2013-02-20 21:13:00,
2013-02-20 16:18:00,19.7,10.5,30.16,NNE,17,9.0,9.0,67,0.00,CLR,,0.00,WeatherDisplay:10.37,2013-02-20 21:18:00,
2013-02-20 16:23:00,19.6,10.4,30.16,North,355,5.8,5.8,67,0.00,CLR,,0.00,WeatherDisplay:10.37,2013-02-20 21:23:00,
2013-02-20 16:28:00,19.7,10.8,30.16,NNW,340,3.5,3.5,68,0.00,CLR,,0.00,WeatherDisplay:10.37,2013-02-20 21:28:00,
2013-02-20 16:33:00,19.6,10.4,30.16,NNW,341,11.5,11.5,67,0.00,CLR,,0.00,WeatherDisplay:10.37,2013-02-20 21:33:00,
2013-02-20 16:38:00,19.6,10.7,30.16,North,5,9.2,9.2,68,0.00,CLR,,0.00,WeatherDisplay:10.37,2013-02-20 21:38:00,
2013-02-20 16:43:00,19.5,10.3,30.17,NNW,337,9.2,9.2,67,0.00,CLR,,0.00,WeatherDisplay:10.37,2013-02-20 21:43:00,
2013-02-20 16:48:00,19.7,11.2,30.18,NE,52,3.5,3.5,69,0.00,CLR,,0.00,WeatherDisplay:10.37,2013-02-20 21:48:00,
2013-02-20 16:53:00,19.7,11.2,30.18,North,9,10.0,10.0,69,0.00,CLR,,0.00,WeatherDisplay:10.37,2013-02-20 21:53:00,
2013-02-20 16:58:00,19.7,11.2,30.18,NNW,333,11.5,11.5,69,0.00,CLR,,0.00,WeatherDisplay:10.37,2013-02-20 21:58:00,
2013-02-20 17:03:00,19.6,11.1,30.18,West,277,12.0,12.0,69,0.00,CLR,,0.00,WeatherDisplay:10.37,2013-02-20 22:03:00,
2013-02-20 17:08:00,19.3,10.5,30.18,North,11,11.0,11.0,68,0.00,CLR,,0.00,WeatherDisplay:10.37,2013-02-20 22:08:00,
2013-02-20 17:13:00,19.3,10.8,30.19,NNE,22,13.0,13.0,69,0.00,CLR,,0.00,WeatherDisplay:10.37,2013-02-20 22:13:00,
2013-02-20 17:18:00,19.3,10.8,30.19,NNE,28,6.9,6.9,69,0.00,CLR,,0.00,WeatherDisplay:10.37,2013-02-20 22:18:00,
2013-02-20 17:23:00,19.2,10.7,30.19,NW,313,13.8,13.8,69,0.00,CLR,,0.00,WeatherDisplay:10.37,2013-02-20 22:23:00,
2013-02-20 17:28:00,19.1,10.6,30.19,NNE,13,5.8,5.8,69,0.00,CLR,,0.00,WeatherDisplay:10.37,2013-02-20 22:28:00,
2013-02-20 17:33:00,19.2,11.0,30.19,West,268,4.6,4.6,70,0.00,CLR,,0.00,WeatherDisplay:10.37,2013-02-20 22:33:00,
2013-02-20 17:38:00,19.2,11.0,30.19,NNW,331,5.8,5.8,70,0.00,CLR,,0.00,WeatherDisplay:10.37,2013-02-20 22:38:00,
2013-02-20 17:43:00,19.2,11.0,30.19,NNW,344,5.8,5.8,70,0.00,CLR,,0.00,WeatherDisplay:10.37,2013-02-20 22:43:00,
2013-02-20 17:48:00,19.2,11.0,30.19,NNW,329,3.5,3.5,70,0.00,CLR,,0.00,WeatherDisplay:10.37,2013-02-20 22:48:00,
2013-02-20 17:53:00,19.1,10.9,30.19,NW,326,9.0,9.0,70,0.00,CLR,,0.00,WeatherDisplay:10.37,2013-02-20 22:53:00,
2013-02-20 17:58:00,19.0,10.8,30.19,NE,51,3.5,3.5,70,0.00,CLR,,0.00,WeatherDisplay:10.37,2013-02-20 22:58:00,
2013-02-20 18:03:00,19.1,11.2,30.19,NNE,14,3.5,3.5,71,0.00,CLR,,0.00,WeatherDisplay:10.37,2013-02-20 23:03:00,
2013-02-20 18:08:00,19.0,11.1,30.20,North,10,3.5,3.5,71,0.00,CLR,,0.00,WeatherDisplay:10.37,2013-02-20 23:08:00,
2013-02-20 18:13:00,19.0,11.5,30.20,NE,45,5.8,5.8,72,0.00,CLR,,0.00,WeatherDisplay:10.37,2013-02-20 23:13:00,
2013-02-20 18:18:00,18.9,11.4,30.20,North,360,13.0,13.0,72,0.00,CLR,,0.00,WeatherDisplay:10.37,2013-02-20 23:18:00,
2013-02-20 18:23:00,18.9,11.4,30.20,NE,38,6.9,6.9,72,0.00,CLR,,0.00,WeatherDisplay:10.37,2013-02-20 23:23:00,
2013-02-20 18:28:00,18.9,11.7,30.20,NE,45,11.5,11.5,73,0.00,CLR,,0.00,WeatherDisplay:10.37,2013-02-20 23:28:00,
2013-02-20 18:33:00,18.9,11.7,30.20,NNE,15,11.5,11.5,73,0.00,CLR,,0.00,WeatherDisplay:10.37,2013-02-20 23:33:00,
2013-02-20 18:38:00,18.9,11.7,30.20,NE,52,4.6,4.6,73,0.00,CLR,,0.00,WeatherDisplay:10.37,2013-02-20 23:38:00,
2013-02-20 18:43:00,18.9,12.0,30.21,NNE,15,5.8,5.8,74,0.00,CLR,,0.00,WeatherDisplay:10.37,2013-02-20 23:43:00,
2013-02-20 18:48:00,18.9,12.0,30.21,NW,315,3.5,3.5,74,0.00,CLR,,0.00,WeatherDisplay:10.37,2013-02-20 23:48:00,
2013-02-20 18:53:00,18.9,12.0,30.20,NE,55,11.5,11.5,74,0.00,CLR,,0.00,WeatherDisplay:10.37,2013-02-20 23:53:00,
2013-02-20 18:58:00,18.9,12.3,30.21,NNW,331,7.0,7.0,75,0.00,CLR,,0.00,WeatherDisplay:10.37,2013-02-20 23:58:00,
2013-02-20 19:03:00,19.0,12.4,30.21,NNE,26,12.7,12.7,75,0.00,CLR,,0.00,WeatherDisplay:10.37,2013-02-21 00:03:00,
2013-02-20 19:08:00,19.0,12.4,30.21,North,10,3.5,3.5,75,0.00,CLR,,0.00,WeatherDisplay:10.37,2013-02-21 00:08:00,
2013-02-20 19:13:00,19.0,12.4,30.21,NNW,344,10.4,10.4,75,0.00,CLR,,0.00,WeatherDisplay:10.37,2013-02-21 00:13:00,
2013-02-20 19:18:00,19.0,12.7,30.21,NE,34,10.4,10.4,76,0.00,CLR,,0.00,WeatherDisplay:10.37,2013-02-21 00:18:00,
2013-02-20 19:23:00,19.0,12.7,30.21,NNE,19,11.5,11.5,76,0.00,CLR,,0.00,WeatherDisplay:10.37,2013-02-21 00:23:00,
2013-02-20 19:28:00,19.1,12.8,30.21,NE,36,4.6,4.6,76,0.00,CLR,,0.00,WeatherDisplay:10.37,2013-02-21 00:28:00,
2013-02-20 19:33:00,19.1,12.8,30.21,WNW,290,12.0,12.0,76,0.00,CLR,,0.00,WeatherDisplay:10.37,2013-02-21 00:33:00,
2013-02-20 19:38:00,19.2,12.9,30.21,North,360,9.2,9.2,76,0.00,CLR,,0.00,WeatherDisplay:10.37,2013-02-21 00:38:00,
2013-02-20 19:43:00,19.3,13.0,30.21,North,355,6.9,6.9,76,0.00,CLR,,0.00,WeatherDisplay:10.37,2013-02-21 00:43:00,
2013-02-20 19:48:00,19.3,13.0,30.21,North,5,11.5,11.5,76,0.00,CLR,,0.00,WeatherDisplay:10.37,2013-02-21 00:48:00,
2013-02-20 19:53:00,19.3,13.0,30.21,NNE,25,11.5,11.5,76,0.00,CLR,,0.00,WeatherDisplay:10.37,2013-02-21 00:53:00,
2013-02-20 19:58:00,19.4,13.1,30.22,NNW,338,9.2,9.2,76,0.00,CLR,,0.00,WeatherDisplay:10.37,2013-02-21 00:58:00,
2013-02-20 20:03:00,19.3,12.7,30.22,NNE,26,11.5,11.5,75,0.00,CLR,,0.00,WeatherDisplay:10.37,2013-02-21 01:03:00,
2013-02-20 20:08:00,19.4,12.8,30.22,NNW,333,8.1,8.1,75,0.00,CLR,,0.00,WeatherDisplay:10.37,2013-02-21 01:08:00,
2013-02-20 20:13:00,19.3,13.0,30.22,ENE,59,9.2,9.2,76,0.00,CLR,,0.00,WeatherDisplay:10.37,2013-02-21 01:13:00,
2013-02-20 20:18:00,19.3,13.0,30.22,North,360,13.8,13.8,76,0.00,CLR,,0.00,WeatherDisplay:10.37,2013-02-21 01:18:00,
2013-02-20 20:23:00,19.2,12.9,30.22,North,355,11.5,11.5,76,0.00,CLR,,0.00,WeatherDisplay:10.37,2013-02-21 01:23:00,
2013-02-20 20:28:00,19.2,13.2,30.21,ENE,71,1.1,0.0,77,0.00,CLR,,0.00,WeatherDisplay:10.37,2013-02-21 01:28:00,
2013-02-20 20:33:00,19.1,13.4,30.22,NNE,32,5.8,5.8,78,0.00,CLR,,0.00,WeatherDisplay:10.37,2013-02-21 01:33:00,
2013-02-20 20:38:00,19.0,13.3,30.22,ENE,64,4.0,4.0,78,0.00,CLR,,0.00,WeatherDisplay:10.37,2013-02-21 01:38:00,
2013-02-20 20:43:00,19.0,13.3,30.22,NE,54,9.2,9.2,78,0.00,CLR,,0.00,WeatherDisplay:10.37,2013-02-21 01:43:00,
2013-02-20 20:48:00,19.0,13.0,30.22,SW,225,4.6,4.6,77,0.00,CLR,,0.00,WeatherDisplay:10.37,2013-02-21 01:48:00,
2013-02-20 20:53:00,18.9,12.6,30.22,NE,40,9.2,9.2,76,0.00,CLR,,0.00,WeatherDisplay:10.37,2013-02-21 01:53:00,
2013-02-20 20:58:00,18.8,12.5,30.22,NNE,22,12.7,12.7,76,0.00,CLR,,0.00,WeatherDisplay:10.37,2013-02-21 01:58:00,
2013-02-20 21:03:00,18.6,12.3,30.22,NNE,13,11.5,11.5,76,0.00,CLR,,0.00,WeatherDisplay:10.37,2013-02-21 02:03:00,
2013-02-20 21:08:00,18.6,12.3,30.23,NNE,20,6.0,6.0,76,0.00,CLR,,0.00,WeatherDisplay:10.37,2013-02-21 02:08:00,
2013-02-20 21:13:00,18.5,12.2,30.23,NNE,27,9.2,9.2,76,0.00,CLR,,0.00,WeatherDisplay:10.37,2013-02-21 02:13:00,
2013-02-20 21:18:00,18.4,12.1,30.22,ENE,59,6.0,6.0,76,0.00,CLR,,0.00,WeatherDisplay:10.37,2013-02-21 02:18:00,
2013-02-20 21:23:00,18.4,12.1,30.22,NNE,32,5.8,5.8,76,0.00,CLR,,0.00,WeatherDisplay:10.37,2013-02-21 02:23:00,
2013-02-20 21:28:00,18.2,11.9,30.22,NE,46,10.4,10.4,76,0.00,CLR,,0.00,WeatherDisplay:10.37,2013-02-21 02:28:00,
2013-02-20 21:33:00,18.2,11.9,30.22,NE,43,3.5,3.5,76,0.00,CLR,,0.00,WeatherDisplay:10.37,2013-02-21 02:33:00,
2013-02-20 21:38:00,18.1,11.8,30.23,NNE,15,6.9,6.9,76,0.00,CLR,,0.00,WeatherDisplay:10.37,2013-02-21 02:38:00,
2013-02-20 21:43:00,18.1,12.1,30.23,NNE,32,10.4,10.4,77,0.00,CLR,,0.00,WeatherDisplay:10.37,2013-02-21 02:43:00,
2013-02-20 21:48:00,18.1,12.1,30.23,NE,45,3.5,3.5,77,0.00,CLR,,0.00,WeatherDisplay:10.37,2013-02-21 02:48:00,
2013-02-20 21:53:00,18.0,12.0,30.23,WNW,289,4.6,4.6,77,0.00,CLR,,0.00,WeatherDisplay:10.37,2013-02-21 02:53:00,
2013-02-20 21:58:00,18.0,12.0,30.23,NNE,32,2.3,2.3,77,0.00,CLR,,0.00,WeatherDisplay:10.37,2013-02-21 02:58:00,
2013-02-20 22:03:00,18.0,12.0,30.23,NNE,28,3.5,3.5,77,0.00,CLR,,0.00,WeatherDisplay:10.37,2013-02-21 03:03:00,
2013-02-20 22:08:00,18.0,12.0,30.22,NE,41,12.7,12.7,77,0.00,CLR,,0.00,WeatherDisplay:10.37,2013-02-21 03:08:00,
2013-02-20 22:13:00,17.9,11.9,30.23,ENE,57,4.6,4.6,77,0.00,CLR,,0.00,WeatherDisplay:10.37,2013-02-21 03:13:00,
2013-02-20 22:19:00,17.9,11.9,30.23,NE,51,8.1,8.1,77,0.00,CLR,,0.00,WeatherDisplay:10.37,2013-02-21 03:19:00,
2013-02-20 22:24:00,17.9,11.9,30.23,NNE,21,3.5,3.5,77,0.00,CLR,,0.00,WeatherDisplay:10.37,2013-02-21 03:24:00,
2013-02-20 22:29:00,17.9,11.9,30.23,NNE,22,4.6,4.6,77,0.00,CLR,,0.00,WeatherDisplay:10.37,2013-02-21 03:29:00,
2013-02-20 22:34:00,17.9,11.9,30.23,NNE,24,0.0,0.0,77,0.00,CLR,,0.00,WeatherDisplay:10.37,2013-02-21 03:34:00,
2013-02-20 22:39:00,18.0,12.0,30.23,NE,44,3.5,3.5,77,0.00,CLR,,0.00,WeatherDisplay:10.37,2013-02-21 03:39:00,
2013-02-20 22:44:00,18.0,12.3,30.24,NE,55,1.1,1.1,78,0.00,CLR,,0.00,WeatherDisplay:10.37,2013-02-21 03:44:00,
2013-02-20 22:49:00,18.0,12.3,30.24,ENE,68,2.3,2.3,78,0.00,CLR,,0.00,WeatherDisplay:10.37,2013-02-21 03:49:00,
2013-02-20 22:54:00,18.0,12.3,30.24,ENE,65,3.5,3.5,78,0.00,CLR,,0.00,WeatherDisplay:10.37,2013-02-21 03:54:00,
2013-02-20 22:59:00,18.1,12.4,30.24,NNE,25,3.5,3.5,78,0.00,CLR,,0.00,WeatherDisplay:10.37,2013-02-21 03:59:00,
2013-02-20 23:04:00,18.1,12.7,30.24,NE,36,6.0,6.0,79,0.00,CLR,,0.00,WeatherDisplay:10.37,2013-02-21 04:04:00,
2013-02-20 23:09:00,18.2,12.5,30.24,ENE,64,0.0,0.0,78,0.00,CLR,,0.00,WeatherDisplay:10.37,2013-02-21 04:09:00,
2013-02-20 23:15:00,18.3,12.6,30.24,NE,38,11.5,11.5,78,0.00,CLR,,0.00,WeatherDisplay:10.37,2013-02-21 04:15:00,
2013-02-20 23:20:00,18.4,12.7,30.24,NE,42,3.5,3.5,78,0.00,CLR,,0.00,WeatherDisplay:10.37,2013-02-21 04:20:00,
2013-02-20 23:25:00,18.5,12.8,30.24,ENE,69,0.0,0.0,78,0.00,CLR,,0.00,WeatherDisplay:10.37,2013-02-21 04:25:00,
2013-02-20 23:30:00,18.5,12.8,30.23,NE,53,6.0,6.0,78,0.00,CLR,,0.00,WeatherDisplay:10.37,2013-02-21 04:30:00,
2013-02-20 23:35:00,18.5,12.8,30.24,ENE,61,9.2,9.2,78,0.00,CLR,,0.00,WeatherDisplay:10.37,2013-02-21 04:35:00,
2013-02-20 23:40:00,18.5,12.8,30.24,NE,49,5.8,5.8,78,0.00,CLR,,0.00,WeatherDisplay:10.37,2013-02-21 04:40:00,
2013-02-20 23:45:00,18.5,13.1,30.24,ENE,65,6.9,6.9,79,0.00,CLR,,0.00,WeatherDisplay:10.37,2013-02-21 04:45:00,
2013-02-20 23:51:00,18.5,13.1,30.23,North,11,5.8,5.8,79,0.00,CLR,,0.00,WeatherDisplay:10.37,2013-02-21 04:51:00,
2013-02-20 23:56:00,18.5,13.1,30.23,NNE,24,4.6,4.6,79,0.00,CLR,,0.00,WeatherDisplay:10.37,2013-02-21 04:56:00,